createdAt,value
2018-10-07T00:04:05.374Z,99.9
2018-10-07T00:09:07.814Z,99.9
2018-10-07T00:14:10.284Z,99.9
2018-10-07T00:19:12.732Z,99.9
2018-10-07T00:24:15.185Z,99.9
2018-10-07T00:29:17.668Z,99.9
2018-10-07T00:34:20.097Z,99.9
2018-10-07T00:39:22.563Z,99.9
2018-10-07T00:44:25.021Z,99.9
2018-10-07T00:49:27.473Z,99.9
2018-10-07T00:54:29.933Z,99.9
2018-10-07T00:59:32.424Z,99.9
2018-10-07T01:04:34.853Z,99.9
2018-10-07T01:09:37.330Z,99.9
2018-10-07T01:14:39.765Z,99.9
2018-10-07T01:19:42.331Z,99.9
2018-10-07T01:24:44.698Z,99.9
2018-10-07T01:29:47.144Z,99.9
2018-10-07T01:34:49.596Z,99.9
2018-10-07T01:39:52.065Z,99.9
2018-10-07T01:44:54.513Z,99.9
2018-10-07T01:49:56.958Z,99.9
2018-10-07T01:54:59.421Z,99.9
2018-10-07T02:00:01.977Z,99.9
2018-10-07T02:05:04.355Z,99.9
2018-10-07T02:10:06.884Z,99.9
2018-10-07T02:15:09.281Z,99.9
2018-10-07T02:20:11.709Z,99.9
2018-10-07T02:25:14.168Z,99.9
2018-10-07T02:30:16.670Z,99.9
2018-10-07T02:35:19.085Z,99.9
2018-10-07T02:40:21.544Z,99.9
2018-10-07T02:45:24.012Z,99.9
2018-10-07T02:50:26.468Z,99.9
2018-10-07T02:55:28.925Z,99.9
2018-10-07T03:00:31.381Z,99.9
2018-10-07T03:05:33.831Z,99.9
2018-10-07T03:10:36.303Z,99.9
2018-10-07T03:15:38.805Z,99.9
2018-10-07T03:20:41.244Z,99.9
2018-10-07T03:25:43.663Z,99.9
2018-10-07T03:30:46.137Z,99.9
2018-10-07T03:35:48.580Z,99.9
2018-10-07T03:40:51.046Z,99.9
2018-10-07T03:45:53.598Z,99.9
2018-10-07T03:50:55.996Z,99.9
2018-10-07T03:55:58.407Z,99.9
2018-10-07T04:01:00.902Z,99.9
2018-10-07T04:06:03.396Z,99.9
2018-10-07T04:11:05.847Z,99.9
2018-10-07T04:16:08.433Z,99.9
2018-10-07T04:21:10.706Z,99.9
2018-10-07T04:26:18.156Z,99.9
2018-10-07T04:31:15.701Z,99.9
2018-10-07T04:36:18.132Z,99.9
2018-10-07T04:41:20.529Z,99.9
2018-10-07T04:46:23.337Z,99.9
2018-10-07T04:51:25.449Z,99.9
2018-10-07T04:56:27.900Z,99.9
2018-10-07T05:01:30.437Z,99.9
2018-10-07T05:06:32.818Z,99.9
2018-10-07T05:11:35.272Z,99.9
2018-10-07T05:16:37.736Z,99.9
2018-10-07T05:21:40.192Z,99.9
2018-10-07T05:26:42.671Z,99.9
2018-10-07T05:31:45.122Z,99.9
2018-10-07T05:36:47.572Z,99.9
2018-10-07T05:41:50.022Z,99.9
2018-10-07T05:46:52.490Z,99.9
2018-10-07T05:51:54.922Z,99.9
2018-10-07T05:56:57.403Z,99.9
2018-10-07T06:01:59.946Z,99.9
2018-10-07T06:07:02.306Z,99.9
2018-10-07T06:12:04.762Z,99.9
2018-10-07T06:17:07.502Z,99.9
2018-10-07T06:22:09.689Z,99.9
2018-10-07T06:27:12.127Z,99.9
2018-10-07T06:32:14.606Z,99.9
2018-10-07T06:37:17.068Z,99.9
2018-10-07T06:42:19.530Z,88.6
2018-10-07T06:47:21.977Z,28.9
2018-10-07T06:52:24.446Z,5.1
2018-10-07T06:57:26.889Z,1
2018-10-07T07:02:29.375Z,1
2018-10-07T07:07:31.829Z,1
2018-10-07T07:12:34.282Z,1
2018-10-07T07:17:36.746Z,1
2018-10-07T07:22:39.188Z,1
2018-10-07T07:27:41.643Z,1
2018-10-07T07:32:44.094Z,1
2018-10-07T07:37:46.548Z,1
2018-10-07T07:42:49.017Z,1
2018-10-07T07:47:51.480Z,1
2018-10-07T07:52:53.938Z,1
2018-10-07T07:57:56.400Z,1
2018-10-07T08:02:58.845Z,1
2018-10-07T08:08:01.320Z,1
2018-10-07T08:13:03.780Z,1
2018-10-07T08:18:06.228Z,1
2018-10-07T08:23:08.678Z,1
2018-10-07T08:28:11.151Z,1
2018-10-07T08:33:13.665Z,1
2018-10-07T08:38:16.062Z,1
2018-10-07T08:43:18.522Z,1
2018-10-07T08:48:20.991Z,1
2018-10-07T08:53:23.435Z,4.1
2018-10-07T08:58:25.934Z,8.2
2018-10-07T09:03:28.379Z,12.4
2018-10-07T09:08:30.813Z,13.6
2018-10-07T09:13:33.274Z,25.9
2018-10-07T09:18:35.737Z,46.4
2018-10-07T09:23:38.294Z,76.2
2018-10-07T09:28:40.654Z,94.2
2018-10-07T09:33:43.109Z,99.9
2018-10-07T09:38:45.565Z,99.9
2018-10-07T09:43:48.016Z,99.9
2018-10-07T09:48:50.480Z,99.9
2018-10-07T09:53:52.982Z,99.9
2018-10-07T09:58:55.397Z,99.9
2018-10-07T10:03:57.922Z,99.9
2018-10-07T10:09:00.314Z,99.9
2018-10-07T10:14:02.785Z,99.9
2018-10-07T10:19:05.263Z,99.9
2018-10-07T10:24:07.682Z,99.9
2018-10-07T10:29:10.321Z,99.9
2018-10-07T10:34:12.596Z,99.9
2018-10-07T10:39:15.086Z,99.9
2018-10-07T10:44:17.512Z,99.9
2018-10-07T10:49:19.966Z,99.9
2018-10-07T10:54:22.421Z,99.9
2018-10-07T10:59:24.881Z,99.9
2018-10-07T11:04:27.473Z,99.9
2018-10-07T11:09:29.808Z,99.9
2018-10-07T11:14:32.252Z,99.9
2018-10-07T11:19:34.836Z,99.9
2018-10-07T11:24:37.173Z,99.9
2018-10-07T11:29:39.672Z,99.9
2018-10-07T11:34:42.167Z,99.9
2018-10-07T11:39:44.554Z,99.9
2018-10-07T11:44:47.150Z,99.9
2018-10-07T11:49:49.463Z,99.9
2018-10-07T11:54:51.960Z,99.9
2018-10-07T11:59:54.404Z,99.9
2018-10-07T12:04:56.850Z,99.9
2018-10-07T12:09:59.309Z,99.9
2018-10-07T12:15:01.892Z,99.9
2018-10-07T12:20:04.358Z,99.9
2018-10-07T12:25:06.684Z,99.9
2018-10-07T12:30:09.139Z,99.9
2018-10-07T12:35:11.599Z,99.9
2018-10-07T12:40:14.177Z,99.9
2018-10-07T12:45:16.603Z,99.9
2018-10-07T12:50:18.981Z,99.9
2018-10-07T12:55:21.430Z,99.9
2018-10-07T13:00:23.895Z,99.9
2018-10-07T13:05:26.367Z,99.9
2018-10-07T13:10:28.798Z,99.9
2018-10-07T13:15:31.269Z,99.9
2018-10-07T13:20:33.799Z,99.9
2018-10-07T13:25:36.567Z,99.9
2018-10-07T13:30:38.710Z,99.9
2018-10-07T13:35:41.087Z,99.9
2018-10-07T13:40:43.575Z,99.9
2018-10-07T13:45:45.999Z,99.9
2018-10-07T13:50:48.462Z,99.9
2018-10-07T13:55:50.923Z,99.9
2018-10-07T14:00:53.401Z,99.9
2018-10-07T14:05:55.919Z,99.9
2018-10-07T14:10:58.308Z,99.9
2018-10-07T14:16:01.018Z,99.9
2018-10-07T14:21:03.212Z,99.9
2018-10-07T14:26:05.653Z,99.9
2018-10-07T14:31:08.168Z,99.9
2018-10-07T14:36:10.810Z,99.9
2018-10-07T14:41:13.063Z,99.9
2018-10-07T14:46:15.494Z,99.9
2018-10-07T14:51:17.965Z,99.9
2018-10-07T14:56:20.431Z,99.9
2018-10-07T15:01:22.887Z,99.9
2018-10-07T15:06:25.328Z,99.9
2018-10-07T15:11:27.779Z,99.9
2018-10-07T15:16:30.245Z,99.9
2018-10-07T15:21:32.697Z,99.9
2018-10-07T15:26:35.151Z,99.9
2018-10-07T15:31:37.629Z,99.9
2018-10-07T15:36:40.084Z,99.9
2018-10-07T15:41:42.527Z,99.9
2018-10-07T15:46:44.994Z,99.9
2018-10-07T15:51:47.440Z,99.9
2018-10-07T15:56:50.045Z,99.9
2018-10-07T16:01:52.382Z,99.9
2018-10-07T16:06:54.838Z,99.9
2018-10-07T16:11:57.281Z,99.9
2018-10-07T16:16:59.756Z,99.9
2018-10-07T16:22:02.278Z,99.9
2018-10-07T16:27:04.643Z,99.9
2018-10-07T16:32:07.137Z,99.9
2018-10-07T16:37:09.611Z,99.9
2018-10-07T16:42:12.074Z,99.9
2018-10-07T16:47:14.479Z,99.9
2018-10-07T16:52:16.943Z,99.9
2018-10-07T16:57:19.408Z,99.9
2018-10-07T17:02:21.857Z,99.9
2018-10-07T17:07:24.341Z,99.9
2018-10-07T17:12:26.847Z,99.9
2018-10-07T17:17:29.230Z,99.9
2018-10-07T17:22:31.692Z,99.9
2018-10-07T17:27:34.134Z,99.9
2018-10-07T17:32:36.608Z,99.9
2018-10-07T17:37:39.067Z,99.9
2018-10-07T17:42:41.533Z,99.9
2018-10-07T17:47:43.967Z,99.9
2018-10-07T17:52:46.454Z,99.9
2018-10-07T17:57:48.902Z,99.9
2018-10-07T18:02:51.495Z,99.9
2018-10-07T18:07:53.806Z,99.9
2018-10-07T18:12:56.257Z,99.9
2018-10-07T18:17:58.815Z,99.9
2018-10-07T18:23:01.184Z,99.9
2018-10-07T18:28:03.622Z,99.9
2018-10-07T18:33:06.088Z,99.9
2018-10-07T18:38:08.571Z,99.9
2018-10-07T18:43:11.120Z,99.9
2018-10-07T18:48:13.522Z,99.9
2018-10-07T18:53:16.215Z,99.9
2018-10-07T18:58:18.384Z,99.9
2018-10-07T19:03:20.888Z,99.9
2018-10-07T19:08:23.423Z,99.9
2018-10-07T19:13:25.743Z,99.9
2018-10-07T19:18:28.227Z,99.9
2018-10-07T19:23:30.664Z,99.9
2018-10-07T19:28:33.121Z,99.9
2018-10-07T19:33:35.583Z,99.9
2018-10-07T19:38:38.041Z,99.9
2018-10-07T19:43:40.509Z,99.9
2018-10-07T19:48:42.952Z,99.9
2018-10-07T19:53:45.448Z,99.9
2018-10-07T19:58:47.881Z,99.9
2018-10-07T20:03:50.313Z,99.9
2018-10-07T20:08:52.797Z,99.9
2018-10-07T20:13:55.237Z,99.9
2018-10-07T20:18:57.698Z,99.9
2018-10-07T20:24:00.163Z,99.9
2018-10-07T20:29:02.625Z,99.9
2018-10-07T20:34:05.098Z,99.9
2018-10-07T20:39:07.539Z,99.9
2018-10-07T20:44:09.981Z,99.9
2018-10-07T20:49:12.488Z,99.9
2018-10-07T20:54:14.994Z,99.9
2018-10-07T20:59:17.355Z,99.9
2018-10-07T21:04:19.880Z,99.9
2018-10-07T21:09:22.277Z,99.9
2018-10-07T21:14:24.781Z,99.9
2018-10-07T21:19:27.208Z,99.9
2018-10-07T21:24:29.733Z,99.9
2018-10-07T21:29:32.104Z,99.9
2018-10-07T21:34:34.577Z,99.9
2018-10-07T21:39:37.030Z,99.9
2018-10-07T21:44:39.485Z,99.9
2018-10-07T21:49:42.048Z,99.9
2018-10-07T21:54:44.388Z,99.9
2018-10-07T21:59:46.862Z,99.9
2018-10-07T22:04:49.309Z,99.9
2018-10-07T22:09:51.774Z,99.9
2018-10-07T22:14:54.256Z,99.9
2018-10-07T22:19:56.721Z,99.9
2018-10-07T22:24:59.139Z,99.9
2018-10-07T22:30:01.652Z,99.9
2018-10-07T22:35:04.075Z,99.9
2018-10-07T22:40:06.620Z,99.9
2018-10-07T22:45:08.963Z,99.9
2018-10-07T22:50:11.433Z,99.9
2018-10-07T22:55:13.900Z,99.9
2018-10-07T23:00:16.356Z,99.9
2018-10-07T23:05:18.793Z,99.9
2018-10-07T23:10:21.259Z,99.9
2018-10-07T23:15:23.725Z,99.9
2018-10-07T23:20:26.188Z,99.9
2018-10-07T23:30:31.088Z,99.9
2018-10-07T23:35:33.540Z,99.9
2018-10-07T23:40:35.992Z,99.9
2018-10-07T23:45:38.618Z,99.9
2018-10-07T23:50:40.909Z,99.9
2018-10-07T23:55:43.377Z,99.9
